createdAt,value
2023-04-30T00:00:44.810Z,96846.28
2023-04-30T00:03:15.888Z,96840.31
2023-04-30T00:05:44.341Z,96839.69
2023-04-30T00:08:12.789Z,96843.09
2023-04-30T00:10:41.666Z,96820.88
2023-04-30T00:13:10.349Z,96813.63
2023-04-30T00:15:38.893Z,96825.88
2023-04-30T00:18:08.833Z,96835.56
2023-04-30T00:20:37.079Z,96845.06
2023-04-30T00:23:05.270Z,96842.53
2023-04-30T00:25:33.490Z,96865.47
2023-04-30T00:28:01.694Z,96822.53
2023-04-30T00:30:30.256Z,96873.91
2023-04-30T00:32:58.449Z,96866.94
2023-04-30T00:35:28.016Z,96848.16
2023-04-30T00:37:56.235Z,96867.75
2023-04-30T00:40:24.435Z,96854.47
2023-04-30T00:42:55.730Z,96854.75
2023-04-30T00:45:24.223Z,96843.47
2023-04-30T00:47:52.567Z,96864.84
2023-04-30T00:50:21.120Z,96828.88
2023-04-30T00:52:50.634Z,96845.19
2023-04-30T00:55:20.026Z,96866.78
2023-04-30T00:57:48.533Z,96814.13
2023-04-30T01:00:17.568Z,96865.28
2023-04-30T01:02:47.236Z,96875.09
2023-04-30T01:05:15.757Z,96875.09
2023-04-30T01:07:46.190Z,96865.59
2023-04-30T01:10:16.665Z,96864.25
2023-04-30T01:12:53.958Z,96862.59
2023-04-30T01:15:29.484Z,96859.59
2023-04-30T01:18:05.349Z,96816.38
2023-04-30T01:20:34.914Z,96908.59
2023-04-30T01:23:19.065Z,96881.88
2023-04-30T01:26:07.090Z,96867.97
2023-04-30T01:28:38.316Z,96879.91
2023-04-30T01:31:14.725Z,96886.22
2023-04-30T01:33:43.380Z,96808.25
2023-04-30T01:36:39.194Z,96848.66
2023-04-30T01:39:37.834Z,96827.63
2023-04-30T01:42:14.237Z,96725.56
2023-04-30T01:45:20.206Z,96884.03
2023-04-30T01:47:54.507Z,96871.50
2023-04-30T01:50:33.075Z,96850.31
2023-04-30T01:53:03.503Z,96889.81
2023-04-30T01:55:37.889Z,96831.31
2023-04-30T01:58:08.688Z,96844.34
2023-04-30T02:00:38.255Z,96888.84
2023-04-30T02:03:07.746Z,96859.72
2023-04-30T02:05:36.532Z,96857.84
2023-04-30T02:08:13.639Z,96860.13
2023-04-30T02:13:34.770Z,96851.25
2023-04-30T02:16:05.158Z,96870.03
2023-04-30T02:18:33.389Z,96832.53
2023-04-30T02:21:01.587Z,96883.09
2023-04-30T02:23:29.776Z,96803.50
2023-04-30T02:25:57.936Z,96847.19
2023-04-30T02:28:26.138Z,96887.63
2023-04-30T02:30:54.295Z,96880.63
2023-04-30T02:33:23.828Z,96852.22
2023-04-30T02:35:51.958Z,96881.97
2023-04-30T02:38:20.116Z,96871.41
2023-04-30T02:40:48.285Z,96864.50
2023-04-30T02:43:16.462Z,96848.06
2023-04-30T02:45:44.670Z,96798.25
2023-04-30T02:48:12.958Z,96893.09
2023-04-30T02:50:42.782Z,96783.53
2023-04-30T02:53:11.282Z,96850.69
2023-04-30T02:55:39.438Z,96813.16
2023-04-30T02:58:07.738Z,96871.63
2023-04-30T03:00:36.157Z,96856.31
2023-04-30T03:03:04.739Z,96853.53
2023-04-30T03:05:32.958Z,96867.94
2023-04-30T03:08:02.488Z,96908.41
2023-04-30T03:10:30.691Z,96832.22
2023-04-30T03:12:58.915Z,96845.28
2023-04-30T03:15:27.099Z,96904.72
2023-04-30T03:17:55.361Z,96878.09
2023-04-30T03:20:23.916Z,96848.28
2023-04-30T03:22:52.258Z,96877.06
2023-04-30T03:25:21.891Z,96883.78
2023-04-30T03:27:50.109Z,96728.47
2023-04-30T03:30:18.334Z,96879.66
2023-04-30T03:32:46.606Z,96806.09
2023-04-30T03:35:14.868Z,96853.44
2023-04-30T03:37:43.475Z,96875.06
2023-04-30T03:40:13.986Z,96844.97
2023-04-30T03:42:44.529Z,96867.88
2023-04-30T03:45:13.279Z,96851.78
2023-04-30T03:47:41.988Z,96891.06
2023-04-30T03:50:12.072Z,96880.56
2023-04-30T03:52:40.276Z,96876.97
2023-04-30T03:55:09.601Z,96878.69
2023-04-30T03:57:37.998Z,96816.50
2023-04-30T04:00:10.308Z,96812.84
2023-04-30T04:02:41.864Z,96892.34
2023-04-30T04:05:12.504Z,96859.25
2023-04-30T04:07:42.703Z,96890.25
2023-04-30T04:10:11.983Z,96883.09
2023-04-30T04:12:40.296Z,96862.88
2023-04-30T04:15:11.326Z,96871.63
2023-04-30T04:17:39.672Z,96882.81
2023-04-30T04:20:12.629Z,96861.19
2023-04-30T04:22:42.159Z,96880.66
2023-04-30T04:25:11.956Z,96868.84
2023-04-30T04:27:41.092Z,96923.44
2023-04-30T04:30:12.240Z,96890.41
2023-04-30T04:32:46.674Z,96884.75
2023-04-30T04:35:15.333Z,96833.56
2023-04-30T04:37:44.092Z,96845.06
2023-04-30T04:40:13.545Z,96916.16
2023-04-30T04:42:42.424Z,96912.56
2023-04-30T04:45:12.672Z,96913.16
2023-04-30T04:47:41.516Z,96892.34
2023-04-30T04:50:12.832Z,96903.84
2023-04-30T04:52:42.447Z,96883.09
2023-04-30T04:55:12.154Z,96915.41
2023-04-30T04:57:42.017Z,96914.53
2023-04-30T05:00:13.149Z,96866.66
2023-04-30T05:02:42.305Z,96906.31
2023-04-30T05:05:11.506Z,96898.06
2023-04-30T05:07:39.821Z,96879.66
2023-04-30T05:10:10.026Z,96923.16
2023-04-30T05:12:40.757Z,96944.19
2023-04-30T05:15:11.645Z,96927.88
2023-04-30T05:17:39.889Z,96888.44
2023-04-30T05:20:10.254Z,96903.56
2023-04-30T05:22:39.416Z,96907.59
2023-04-30T05:25:09.088Z,96894.22
2023-04-30T05:27:37.746Z,96885.94
2023-04-30T05:30:09.393Z,96904.13
2023-04-30T05:32:39.075Z,96880.97
2023-04-30T05:35:08.582Z,96767.00
2023-04-30T05:37:36.790Z,96910.63
2023-04-30T05:40:06.673Z,96877.72
2023-04-30T05:42:34.868Z,96889.31
2023-04-30T05:45:03.398Z,96926.56
2023-04-30T05:47:31.634Z,96910.47
2023-04-30T05:50:01.597Z,96903.56
2023-04-30T05:52:29.752Z,96911.72
2023-04-30T05:54:57.939Z,96927.38
2023-04-30T05:57:26.336Z,96911.13
2023-04-30T05:59:54.886Z,96913.59
2023-04-30T06:02:23.581Z,96931.72
2023-04-30T06:04:52.361Z,96920.59
2023-04-30T06:07:33.447Z,96910.94
2023-04-30T06:10:05.323Z,96896.72
2023-04-30T06:12:34.519Z,96988.03
2023-04-30T06:15:02.832Z,96900.59
2023-04-30T06:17:31.473Z,96900.91
2023-04-30T06:20:02.368Z,96878.19
2023-04-30T06:22:34.149Z,96886.34
2023-04-30T06:25:03.476Z,96888.97
2023-04-30T06:27:32.465Z,96920.13
2023-04-30T06:30:01.197Z,96929.72
2023-04-30T06:32:29.417Z,96897.41
2023-04-30T06:34:57.589Z,96879.97
2023-04-30T06:37:25.806Z,96886.41
2023-04-30T06:39:55.569Z,96919.38
2023-04-30T06:42:24.178Z,96943.13
2023-04-30T06:44:52.527Z,96921.03
2023-04-30T06:47:20.861Z,96867.44
2023-04-30T06:49:49.364Z,96896.78
2023-04-30T06:52:17.523Z,96913.28
2023-04-30T06:54:45.734Z,96943.13
2023-04-30T06:57:15.622Z,96866.09
2023-04-30T06:59:44.236Z,96917.22
2023-04-30T07:02:12.509Z,96884.25
2023-04-30T07:04:40.736Z,96853.88
2023-04-30T07:07:09.619Z,96914.59
2023-04-30T07:09:37.780Z,96914.44
2023-04-30T07:12:05.964Z,96865.75
2023-04-30T07:14:35.478Z,96839.66
2023-04-30T07:17:03.628Z,96902.38
2023-04-30T07:19:32.521Z,96870.63
2023-04-30T07:22:00.854Z,96949.63
2023-04-30T07:24:29.054Z,96858.22
2023-04-30T07:26:57.281Z,96873.59
2023-04-30T07:29:25.608Z,96866.31
2023-04-30T07:31:55.299Z,96903.47
2023-04-30T07:34:23.657Z,96864.16
2023-04-30T07:36:51.839Z,96888.91
2023-04-30T07:39:20.026Z,96887.16
2023-04-30T07:41:48.246Z,96871.31
2023-04-30T07:44:16.782Z,96846.88
2023-04-30T07:46:45.061Z,96929.56
2023-04-30T07:49:14.637Z,96907.34
2023-04-30T07:51:43.324Z,96853.09
2023-04-30T07:54:11.465Z,96906.13
2023-04-30T07:56:39.703Z,96901.56
2023-04-30T07:59:07.892Z,96895.69
2023-04-30T08:01:36.611Z,96909.72
2023-04-30T08:04:10.750Z,96941.78
2023-04-30T08:06:40.690Z,96857.03
2023-04-30T08:09:09.279Z,96876.75
2023-04-30T08:11:37.953Z,96873.22
2023-04-30T08:14:06.993Z,96893.69
2023-04-30T08:16:35.427Z,96930.06
2023-04-30T08:19:04.132Z,96924.50
2023-04-30T08:21:32.397Z,96904.00
2023-04-30T08:24:02.105Z,96912.88
2023-04-30T08:26:30.429Z,96899.06
2023-04-30T08:28:58.597Z,96864.81
2023-04-30T08:31:26.981Z,96861.94
2023-04-30T08:33:55.566Z,96881.41
2023-04-30T08:36:23.803Z,96891.13
2023-04-30T08:38:51.955Z,96885.75
2023-04-30T08:41:27.257Z,96901.84
2023-04-30T08:43:55.878Z,96835.09
2023-04-30T08:46:25.910Z,96894.13
2023-04-30T08:48:54.268Z,96897.50
2023-04-30T08:51:23.017Z,96827.72
2023-04-30T08:53:52.302Z,96881.06
2023-04-30T08:56:24.721Z,96883.38
2023-04-30T08:58:53.548Z,96846.25
2023-04-30T09:01:22.354Z,96904.91
2023-04-30T09:03:50.768Z,96944.66
2023-04-30T09:06:19.097Z,96838.66
2023-04-30T09:08:49.116Z,96955.91
2023-04-30T09:11:27.226Z,96856.75
2023-04-30T09:13:57.379Z,96855.94
2023-04-30T09:16:26.906Z,96878.63
2023-04-30T09:18:56.427Z,96899.28
2023-04-30T09:21:33.617Z,96879.50
2023-04-30T09:24:03.360Z,96845.34
2023-04-30T09:26:37.944Z,96818.84
2023-04-30T09:29:08.888Z,96890.59
2023-04-30T09:31:38.672Z,96854.94
2023-04-30T09:34:08.057Z,96750.44
2023-04-30T09:36:36.817Z,96888.22
2023-04-30T09:39:14.218Z,96883.34
2023-04-30T09:41:45.364Z,96852.00
2023-04-30T09:44:29.246Z,96926.16
2023-04-30T09:46:58.980Z,96835.66
2023-04-30T09:49:28.195Z,96875.03
2023-04-30T09:51:57.812Z,96908.41
2023-04-30T09:54:29.514Z,96910.97
2023-04-30T09:57:01.704Z,96872.75
2023-04-30T09:59:32.133Z,96842.22
2023-04-30T10:02:25.968Z,96933.34
2023-04-30T10:05:22.921Z,96878.19
2023-04-30T10:07:51.264Z,96890.53
2023-04-30T10:10:20.728Z,96902.16
2023-04-30T10:12:53.719Z,96883.53
2023-04-30T10:15:27.091Z,96871.25
2023-04-30T10:18:07.069Z,96872.31
2023-04-30T10:20:37.868Z,96853.22
2023-04-30T10:23:07.109Z,96883.16
2023-04-30T10:25:35.679Z,96865.31
2023-04-30T10:28:05.589Z,96845.44
2023-04-30T10:30:34.189Z,96855.28
2023-04-30T10:33:17.197Z,96847.22
2023-04-30T10:35:50.845Z,96861.00
2023-04-30T10:38:25.122Z,96867.19
2023-04-30T10:40:58.049Z,96802.97
2023-04-30T10:43:30.413Z,96864.56
2023-04-30T10:45:59.932Z,96852.31
2023-04-30T10:48:29.187Z,96854.50
2023-04-30T10:50:59.449Z,96840.81
2023-04-30T10:53:31.439Z,96837.16
2023-04-30T10:56:06.570Z,96785.25
2023-04-30T10:58:38.611Z,96836.78
2023-04-30T11:01:10.989Z,96807.41
2023-04-30T11:03:42.449Z,96835.31
2023-04-30T11:06:13.433Z,96833.75
2023-04-30T11:08:46.440Z,96847.34
2023-04-30T11:11:21.244Z,96840.16
2023-04-30T11:14:02.701Z,96819.47
2023-04-30T11:16:31.556Z,96847.72
2023-04-30T11:19:10.095Z,96845.81
2023-04-30T11:21:42.187Z,96872.41
2023-04-30T11:24:10.438Z,96831.16
2023-04-30T11:27:06.892Z,96831.38
2023-04-30T11:29:37.439Z,96883.41
2023-04-30T11:32:06.436Z,96828.81
2023-04-30T11:34:36.530Z,96804.56
2023-04-30T11:37:04.855Z,96811.06
2023-04-30T11:39:37.594Z,96811.69
2023-04-30T11:42:05.810Z,96824.59
2023-04-30T11:44:34.108Z,96856.69
2023-04-30T11:47:10.656Z,96792.16
2023-04-30T11:49:39.053Z,96840.22
2023-04-30T11:52:08.886Z,96763.25
2023-04-30T11:54:38.928Z,96808.38
2023-04-30T11:57:07.381Z,96773.16
2023-04-30T11:59:42.288Z,96717.56
2023-04-30T12:02:16.762Z,96848.22
2023-04-30T12:04:48.431Z,96788.75
2023-04-30T12:07:22.657Z,96814.19
2023-04-30T12:09:56.291Z,96822.75
2023-04-30T12:12:38.782Z,96812.72
2023-04-30T12:15:15.967Z,96797.34
2023-04-30T12:17:46.545Z,96688.91
2023-04-30T12:20:16.300Z,96806.22
2023-04-30T12:22:45.761Z,96793.53
2023-04-30T12:25:17.945Z,96805.34
2023-04-30T12:27:49.202Z,96804.25
2023-04-30T12:30:22.340Z,96797.97
2023-04-30T12:32:54.674Z,96783.31
2023-04-30T12:35:24.907Z,96819.13
2023-04-30T12:37:57.345Z,96800.69
2023-04-30T12:40:29.483Z,96765.00
2023-04-30T12:43:03.102Z,96784.44
2023-04-30T12:45:45.484Z,96768.88
2023-04-30T12:48:17.106Z,96820.06
2023-04-30T12:50:53.734Z,96812.00
2023-04-30T12:53:22.570Z,96776.19
2023-04-30T12:56:12.194Z,96742.03
2023-04-30T12:58:40.833Z,96750.19
2023-04-30T13:01:13.788Z,96732.38
2023-04-30T13:03:43.697Z,96802.00
2023-04-30T13:06:12.302Z,96726.84
2023-04-30T13:08:56.283Z,96772.75
2023-04-30T13:11:27.789Z,96732.81
2023-04-30T13:13:56.669Z,96746.94
2023-04-30T13:16:25.960Z,96732.31
2023-04-30T13:18:56.020Z,96768.25
2023-04-30T13:21:25.186Z,96749.81
2023-04-30T13:23:54.829Z,96738.69
2023-04-30T13:26:24.535Z,96766.19
2023-04-30T13:28:52.952Z,96771.97
2023-04-30T13:31:22.184Z,96772.63
2023-04-30T13:33:50.769Z,96751.28
2023-04-30T13:36:20.961Z,96764.19
2023-04-30T13:38:49.187Z,96759.78
2023-04-30T13:41:17.369Z,96749.50
2023-04-30T13:43:46.440Z,96728.22
2023-04-30T13:46:15.019Z,96717.44
2023-04-30T13:48:43.643Z,96694.53
2023-04-30T13:51:11.778Z,96700.28
2023-04-30T13:53:41.272Z,96688.94
2023-04-30T13:56:10.194Z,96696.44
2023-04-30T13:58:38.573Z,96703.88
2023-04-30T14:01:06.930Z,96658.03
2023-04-30T14:03:59.966Z,96651.75
2023-04-30T14:06:29.568Z,96557.31
2023-04-30T14:08:59.224Z,96705.38
2023-04-30T14:11:28.358Z,96652.50
2023-04-30T14:13:56.738Z,96631.56
2023-04-30T14:16:25.037Z,96709.88
2023-04-30T14:18:53.276Z,96719.69
2023-04-30T14:21:21.568Z,96677.66
2023-04-30T14:23:49.747Z,96669.59
2023-04-30T14:26:19.520Z,96655.56
2023-04-30T14:28:47.722Z,96669.66
2023-04-30T14:31:15.926Z,96686.59
2023-04-30T14:33:44.340Z,96680.72
2023-04-30T14:36:12.651Z,96702.03
2023-04-30T14:38:40.913Z,96657.75
2023-04-30T14:41:09.060Z,96676.34
2023-04-30T14:43:38.601Z,96707.69
2023-04-30T14:46:07.021Z,96685.09
2023-04-30T14:48:35.303Z,96666.34
2023-04-30T14:51:03.573Z,96673.22
2023-04-30T14:53:32.353Z,96669.44
2023-04-30T14:56:00.926Z,96573.72
2023-04-30T14:58:29.111Z,96651.94
2023-04-30T15:00:58.676Z,96665.41
2023-04-30T15:03:27.124Z,96684.50
2023-04-30T15:05:55.983Z,96666.09
2023-04-30T15:08:24.274Z,96624.34
2023-04-30T15:10:52.498Z,96680.47
2023-04-30T15:13:20.717Z,96632.72
2023-04-30T15:15:49.742Z,96651.09
2023-04-30T15:18:19.493Z,96613.75
2023-04-30T15:20:47.682Z,96639.97
2023-04-30T15:23:15.913Z,96658.38
2023-04-30T15:25:44.243Z,96615.34
2023-04-30T15:28:12.484Z,96606.59
2023-04-30T15:30:40.756Z,96673.44
2023-04-30T15:33:08.985Z,96664.50
2023-04-30T15:35:38.636Z,96630.06
2023-04-30T15:38:06.875Z,96619.69
2023-04-30T15:40:36.957Z,96634.09
2023-04-30T15:43:06.030Z,96613.41
2023-04-30T15:45:34.578Z,96604.25
2023-04-30T15:48:04.857Z,96671.88
2023-04-30T15:50:33.545Z,96664.41
2023-04-30T15:53:03.135Z,96627.72
2023-04-30T15:55:31.343Z,96636.63
2023-04-30T15:57:59.545Z,96626.50
2023-04-30T16:00:28.722Z,96562.22
2023-04-30T16:02:58.167Z,96622.34
2023-04-30T16:05:26.758Z,96666.69
2023-04-30T16:07:55.460Z,96612.19
2023-04-30T16:10:25.052Z,96626.66
2023-04-30T16:12:53.546Z,96615.69
2023-04-30T16:15:21.803Z,96591.22
2023-04-30T16:17:50.030Z,96611.16
2023-04-30T16:20:18.255Z,96593.47
2023-04-30T16:22:47.483Z,96640.28
2023-04-30T16:25:15.651Z,96618.13
2023-04-30T16:27:46.111Z,96596.53
2023-04-30T16:30:14.631Z,96611.34
2023-04-30T16:32:42.949Z,96597.16
2023-04-30T16:35:11.436Z,96625.44
2023-04-30T16:37:46.937Z,96643.94
2023-04-30T16:40:15.149Z,96602.50
2023-04-30T16:42:44.989Z,96584.94
2023-04-30T16:45:13.258Z,96586.28
2023-04-30T16:47:41.435Z,96621.56
2023-04-30T16:50:10.671Z,96603.72
2023-04-30T16:52:38.893Z,96591.06
2023-04-30T16:55:10.270Z,96562.63
2023-04-30T16:57:38.481Z,96585.94
2023-04-30T17:00:11.418Z,96586.56
2023-04-30T17:02:40.892Z,96595.00
2023-04-30T17:05:11.458Z,96567.34
2023-04-30T17:07:39.721Z,96565.50
2023-04-30T17:10:09.810Z,96596.50
2023-04-30T17:12:38.155Z,96580.72
2023-04-30T17:15:09.085Z,96576.03
2023-04-30T17:17:37.278Z,96560.06
2023-04-30T17:20:06.620Z,96580.56
2023-04-30T17:22:34.882Z,96606.66
2023-04-30T17:25:04.107Z,96589.69
2023-04-30T17:27:32.288Z,96547.72
2023-04-30T17:30:00.502Z,96564.72
2023-04-30T17:32:30.473Z,96625.75
2023-04-30T17:35:00.166Z,96535.28
2023-04-30T17:37:28.477Z,96663.97
2023-04-30T17:39:57.472Z,96607.72
2023-04-30T17:42:26.087Z,96584.97
2023-04-30T17:44:54.253Z,96588.06
2023-04-30T17:47:22.973Z,96603.19
2023-04-30T17:49:52.844Z,96623.00
2023-04-30T17:52:21.268Z,96577.38
2023-04-30T17:54:49.403Z,96622.34
2023-04-30T17:57:17.603Z,96543.81
2023-04-30T17:59:45.835Z,96572.00
2023-04-30T18:02:14.238Z,96595.25
2023-04-30T18:04:50.836Z,96615.00
2023-04-30T18:07:31.788Z,96590.06
2023-04-30T18:10:03.162Z,96612.22
2023-04-30T18:12:31.489Z,96631.31
2023-04-30T18:15:00.660Z,96582.72
2023-04-30T18:17:28.859Z,96564.81
2023-04-30T18:19:57.380Z,96618.38
2023-04-30T18:22:25.731Z,96619.16
2023-04-30T18:24:55.369Z,96555.00
2023-04-30T18:27:23.549Z,96612.03
2023-04-30T18:29:52.193Z,96596.50
2023-04-30T18:32:20.432Z,96617.59
2023-04-30T18:34:48.604Z,96592.84
2023-04-30T18:37:17.805Z,96580.38
2023-04-30T18:39:45.973Z,96591.53
2023-04-30T18:42:15.576Z,96592.03
2023-04-30T18:44:43.840Z,96612.28
2023-04-30T18:47:12.274Z,96602.13
2023-04-30T18:49:41.414Z,96616.66
2023-04-30T18:52:09.828Z,96532.84
2023-04-30T18:54:38.085Z,96583.25
2023-04-30T18:57:06.789Z,96585.09
2023-04-30T18:59:36.326Z,96651.38
2023-04-30T19:02:04.668Z,96621.47
2023-04-30T19:04:32.988Z,96600.56
2023-04-30T19:07:01.235Z,96665.75
2023-04-30T19:09:29.431Z,96626.16
2023-04-30T19:11:57.926Z,96615.25
2023-04-30T19:14:26.283Z,96649.63
2023-04-30T19:16:57.311Z,96641.81
2023-04-30T19:19:25.796Z,96606.19
2023-04-30T19:21:54.504Z,96613.63
2023-04-30T19:24:23.709Z,96580.88
2023-04-30T19:26:52.363Z,96649.84
2023-04-30T19:29:20.657Z,96661.69
2023-04-30T19:31:49.014Z,96597.63
2023-04-30T19:34:18.682Z,96629.50
2023-04-30T19:36:47.575Z,96636.59
2023-04-30T19:39:16.393Z,96585.84
2023-04-30T19:41:44.617Z,96615.03
2023-04-30T19:44:12.896Z,96638.00
2023-04-30T19:46:42.356Z,96656.66
2023-04-30T19:49:10.763Z,96582.00
2023-04-30T19:51:40.365Z,96628.63
2023-04-30T19:54:13.850Z,96637.88
2023-04-30T19:56:42.534Z,96668.41
2023-04-30T19:59:11.152Z,96510.69
2023-04-30T20:01:41.715Z,96599.16
2023-04-30T20:04:11.353Z,96607.25
2023-04-30T20:06:41.217Z,96650.47
2023-04-30T20:09:15.091Z,96629.59
2023-04-30T20:11:49.339Z,96601.44
2023-04-30T20:14:17.590Z,96635.03
2023-04-30T20:16:46.225Z,96646.44
2023-04-30T20:19:14.642Z,96585.34
2023-04-30T20:21:44.363Z,96636.03
2023-04-30T20:24:12.680Z,96608.06
2023-04-30T20:26:42.215Z,96609.91
2023-04-30T20:29:11.765Z,96628.34
2023-04-30T20:31:40.417Z,96641.22
2023-04-30T20:34:08.809Z,96577.50
2023-04-30T20:36:37.040Z,96579.47
2023-04-30T20:39:06.898Z,96609.47
2023-04-30T20:41:35.762Z,96536.28
2023-04-30T20:44:04.624Z,96633.25
2023-04-30T20:46:32.853Z,96637.84
2023-04-30T20:49:04.440Z,96679.81
2023-04-30T20:51:32.987Z,96619.88
2023-04-30T20:54:01.202Z,96577.59
2023-04-30T20:56:31.351Z,96637.00
2023-04-30T20:58:59.552Z,96609.34
2023-04-30T21:01:28.095Z,96647.72
2023-04-30T21:03:56.655Z,96607.38
2023-04-30T21:06:24.917Z,96614.47
2023-04-30T21:08:53.126Z,96628.91
2023-04-30T21:11:21.398Z,96644.19
2023-04-30T21:13:51.445Z,96675.94
2023-04-30T21:16:20.143Z,96673.09
2023-04-30T21:18:48.777Z,96651.91
2023-04-30T21:21:17.039Z,96655.00
2023-04-30T21:23:48.052Z,96652.84
2023-04-30T21:26:16.662Z,96653.03
2023-04-30T21:28:45.123Z,96612.53
2023-04-30T21:31:15.097Z,96556.97
2023-04-30T21:33:43.337Z,96641.63
2023-04-30T21:36:11.568Z,96631.75
2023-04-30T21:38:39.790Z,96614.66
2023-04-30T21:41:07.955Z,96606.44
2023-04-30T21:43:36.983Z,96613.78
2023-04-30T21:46:05.376Z,96625.03
2023-04-30T21:48:35.158Z,96587.34
2023-04-30T21:51:04.387Z,96625.13
2023-04-30T21:53:32.644Z,96598.50
2023-04-30T21:56:08.043Z,96601.59
2023-04-30T21:58:36.407Z,96621.81
2023-04-30T22:01:05.664Z,96627.00
2023-04-30T22:03:35.860Z,96508.81
2023-04-30T22:06:04.794Z,96545.00
2023-04-30T22:08:33.607Z,96625.38
2023-04-30T22:11:03.446Z,96551.78
2023-04-30T22:13:31.961Z,96598.56
2023-04-30T22:16:00.190Z,96450.88
2023-04-30T22:18:28.458Z,96549.78
2023-04-30T22:20:58.104Z,96606.13
2023-04-30T22:23:26.424Z,96593.75
2023-04-30T22:25:54.614Z,96583.25
2023-04-30T22:28:23.459Z,96607.88
2023-04-30T22:30:58.597Z,96586.56
2023-04-30T22:33:27.266Z,96605.53
2023-04-30T22:35:57.603Z,96621.50
2023-04-30T22:38:25.832Z,96559.31
2023-04-30T22:40:54.140Z,96576.59
2023-04-30T22:43:22.595Z,96568.16
2023-04-30T22:45:51.114Z,96576.25
2023-04-30T22:48:19.484Z,96546.09
2023-04-30T22:50:47.945Z,96585.19
2023-04-30T22:53:17.538Z,96557.91
2023-04-30T22:55:46.106Z,96444.00
2023-04-30T22:58:14.336Z,96575.56
2023-04-30T23:00:42.699Z,96601.56
2023-04-30T23:03:11.314Z,96593.88
2023-04-30T23:05:39.694Z,96593.47
2023-04-30T23:08:08.007Z,96600.56
2023-04-30T23:10:37.610Z,96574.47
2023-04-30T23:13:05.851Z,96568.66
2023-04-30T23:15:34.173Z,96584.19
2023-04-30T23:18:02.485Z,96579.94
2023-04-30T23:20:30.772Z,96580.28
2023-04-30T23:22:58.942Z,96607.47
2023-04-30T23:25:27.289Z,96587.41
2023-04-30T23:27:58.073Z,96602.56
2023-04-30T23:30:26.994Z,96555.28
2023-04-30T23:32:55.631Z,96572.31
2023-04-30T23:35:24.025Z,96573.13
2023-04-30T23:37:52.193Z,96553.91
2023-04-30T23:40:20.501Z,96582.38
2023-04-30T23:42:48.707Z,96621.25
2023-04-30T23:45:18.475Z,96613.88
2023-04-30T23:47:48.349Z,96545.69
2023-04-30T23:50:16.919Z,96608.25
2023-04-30T23:52:45.130Z,96614.38
2023-04-30T23:55:13.742Z,96555.91
2023-04-30T23:57:42.591Z,96571.34
